Rota Mariana Islands, Northern Mariana Islands
Current Conditions -  °F | °C
As of 6:50 AM on Friday 19 Dec 2014 (Local Time) from PGRO Reporting Station
Scattered Clouds Scattered Clouds  
Wind Chill: 79°   Ceiling: Unl
Heat Index: 82°   Visibility: 7mi
Dew Point: 73°   Wind: 14mph
Humidity: 83%   Direction: 30°NNE
Pressure: 29.96"   Gusts: 21mph
Location:  14.17°N, 145.25°E
Report Text: PGRO 182050Z 03012G18KT 7SM SCT020 26/23 A2996
Loading
Personal Weather Stations






























Interactive Weather Map New forecast layout! Learn more

10-Day Weather Forecast

Advertisements
Track Severe Weather on mobile